Time;durP1;ratioP1;P1;durP2;ratioP2;P2;SDS_P1;SDS_P2;PMS_P1;PMS_P2;Temp;Humidity;BMP_temperature;BMP_pressure;BME280_temperature;BME280_humidity;BME280_pressure;Samples;Min_cycle;Max_cycle;Signal;HPM_P1;HPM_P2
2023/07/11 04:02:43;;;;;;;3.83;3.27;;;16.50;97.30;;;;;;5014819;23;20569;-90
2023/07/11 04:05:09;;;;;;;2.90;2.70;;;16.50;97.30;;;;;;4989307;28;20464;-88
2023/07/11 04:07:34;;;;;;;2.73;2.33;;;16.50;97.30;;;;;;5006596;28;20190;-86
2023/07/11 04:10:00;;;;;;;3.00;2.83;;;16.50;97.30;;;;;;4990964;28;20232;-88
2023/07/11 04:12:25;;;;;;;7.40;2.60;;;16.50;97.30;;;;;;4989631;28;20199;-87
2023/07/11 04:17:21;;;;;;;4.40;3.17;;;16.60;97.30;;;;;;4975767;28;20217;-82
2023/07/11 04:19:47;;;;;;;5.80;3.60;;;16.60;97.30;;;;;;4976621;28;20808;-82
2023/07/11 04:22:12;;;;;;;2.27;2.07;;;16.60;97.30;;;;;;4964361;28;20490;-82
2023/07/11 04:24:38;;;;;;;3.77;2.90;;;16.60;97.30;;;;;;4967058;28;20198;-82
2023/07/11 04:27:03;;;;;;;3.93;2.50;;;16.70;97.30;;;;;;4969459;28;20187;-82
2023/07/11 04:29:29;;;;;;;3.00;2.80;;;16.70;97.30;;;;;;4969072;28;20638;-82
2023/07/11 04:31:55;;;;;;;6.00;3.90;;;16.70;97.30;;;;;;4969431;28;20658;-84
2023/07/11 04:34:20;;;;;;;3.00;2.80;;;16.80;97.30;;;;;;4970804;28;20197;-81
2023/07/11 04:36:46;;;;;;;2.60;2.40;;;16.80;97.30;;;;;;4946267;28;20186;-81
2023/07/11 04:39:11;;;;;;;3.30;2.90;;;16.90;97.30;;;;;;4969510;28;20443;-82
2023/07/11 04:41:38;;;;;;;4.87;2.30;;;16.90;97.30;;;;;;4947790;28;20270;-81
2023/07/11 04:44:04;;;;;;;2.60;2.40;;;17.00;97.30;;;;;;4961551;28;20183;-81
2023/07/11 04:46:29;;;;;;;3.77;3.57;;;17.00;97.30;;;;;;4963273;28;20479;-81
2023/07/11 04:48:55;;;;;;;2.80;2.43;;;17.10;97.30;;;;;;4968778;28;20187;-81
2023/07/11 04:51:21;;;;;;;2.73;2.53;;;17.10;97.30;;;;;;4952312;28;20218;-81
2023/07/11 04:53:46;;;;;;;3.17;2.97;;;17.20;97.30;;;;;;4964789;28;20221;-84
2023/07/11 04:56:12;;;;;;;2.87;2.63;;;17.20;97.30;;;;;;4966542;28;20210;-84
2023/07/11 04:58:38;;;;;;;5.27;2.90;;;17.30;97.30;;;;;;4960066;28;20180;-83
2023/07/11 05:01:08;;;;;;;4.00;2.97;;;17.30;97.30;;;;;;4960595;28;20466;-82
2023/07/11 05:03:34;;;;;;;12.77;4.70;;;17.30;97.30;;;;;;4962178;28;20436;-83
2023/07/11 05:06:03;;;;;;;3.10;2.90;;;17.40;97.30;;;;;;4960945;28;20442;-82
2023/07/11 05:08:30;;;;;;;7.20;3.77;;;17.40;97.30;;;;;;4967050;28;20431;-82
2023/07/11 05:11:11;;;;;;;5.80;4.00;;;17.40;97.30;;;;;;4974768;28;20446;-84
2023/07/11 05:13:36;;;;;;;6.70;3.93;;;17.50;97.30;;;;;;4958347;28;20438;-82
2023/07/11 05:16:05;;;;;;;4.40;3.70;;;17.60;97.30;;;;;;4965008;28;20465;-83
2023/07/11 05:18:31;;;;;;;6.07;3.83;;;17.60;97.30;;;;;;4960464;28;20199;-83
2023/07/11 05:20:58;;;;;;;6.33;3.00;;;17.70;97.30;;;;;;4951745;29;20573;-83
2023/07/11 05:23:27;;;;;;;5.17;3.63;;;17.70;97.30;;;;;;4946636;28;20432;-83
2023/07/11 05:25:54;;;;;;;5.60;3.97;;;17.80;97.30;;;;;;4972345;28;20480;-83
2023/07/11 05:28:20;;;;;;;9.20;2.53;;;17.90;97.30;;;;;;4972997;28;20426;-82
2023/07/11 05:30:46;;;;;;;4.17;3.63;;;17.90;97.30;;;;;;4972751;28;20544;-83
2023/07/11 05:33:12;;;;;;;4.27;3.10;;;18.00;97.30;;;;;;4972861;28;21029;-83
2023/07/11 05:35:45;;;;;;;2.63;2.43;;;18.10;97.30;;;;;;4965517;28;20651;-84
2023/07/11 05:38:11;;;;;;;4.73;3.53;;;18.10;97.30;;;;;;4971629;28;20178;-84
2023/07/11 05:40:40;;;;;;;3.93;3.20;;;18.20;97.30;;;;;;4973105;28;20520;-85
2023/07/11 05:43:06;;;;;;;3.33;2.50;;;18.30;97.30;;;;;;4974950;28;20718;-84
2023/07/11 05:45:31;;;;;;;3.77;3.30;;;18.30;97.30;;;;;;4953886;28;20484;-85
2023/07/11 05:47:59;;;;;;;3.30;3.10;;;18.40;97.30;;;;;;4980875;28;20233;-85
2023/07/11 05:50:25;;;;;;;2.30;2.10;;;18.40;97.30;;;;;;4967367;28;20194;-87
2023/07/11 05:52:50;;;;;;;2.93;2.60;;;18.50;97.30;;;;;;4965728;28;20500;-85
2023/07/11 05:55:16;;;;;;;2.40;2.07;;;18.60;97.30;;;;;;4970189;28;20523;-85
2023/07/11 05:57:42;;;;;;;3.70;2.70;;;18.60;97.30;;;;;;4972487;28;20240;-85
2023/07/11 06:00:09;;;;;;;3.23;2.10;;;18.70;97.30;;;;;;4972348;28;20540;-85
2023/07/11 06:02:36;;;;;;;4.30;3.60;;;18.80;97.30;;;;;;4971963;28;20178;-85
2023/07/11 06:05:01;;;;;;;3.43;2.97;;;18.90;97.30;;;;;;4971959;28;20430;-85
2023/07/11 06:07:28;;;;;;;6.33;3.37;;;18.90;97.30;;;;;;4980238;28;20433;-85
2023/07/11 06:09:55;;;;;;;5.87;3.43;;;19.00;97.30;;;;;;4980061;28;20178;-86
2023/07/11 06:12:21;;;;;;;3.00;2.80;;;19.10;97.30;;;;;;4988080;28;20448;-85
2023/07/11 06:14:47;;;;;;;4.90;3.00;;;19.20;97.30;;;;;;4977089;28;21008;-85
2023/07/11 06:17:13;;;;;;;2.80;2.10;;;19.30;97.30;;;;;;4969667;28;20483;-85
2023/07/11 06:19:39;;;;;;;2.70;2.50;;;19.40;97.30;;;;;;4969484;28;20422;-86
2023/07/11 06:22:04;;;;;;;3.30;2.77;;;19.40;97.30;;;;;;4964137;28;20238;-85
2023/07/11 06:24:30;;;;;;;2.70;2.13;;;19.50;97.30;;;;;;4968018;28;20210;-86
2023/07/11 06:26:56;;;;;;;3.00;2.50;;;19.60;97.30;;;;;;4970808;28;20241;-87
2023/07/11 06:29:22;;;;;;;6.00;3.07;;;19.70;97.30;;;;;;4970925;28;20233;-85
2023/07/11 06:31:48;;;;;;;2.90;2.77;;;19.80;97.30;;;;;;4960351;28;20203;-86
2023/07/11 06:34:13;;;;;;;1.87;1.87;;;19.90;97.30;;;;;;4982948;28;20430;-84
2023/07/11 06:36:39;;;;;;;4.53;2.13;;;20.00;97.30;;;;;;4958949;28;20203;-85
2023/07/11 06:39:04;;;;;;;40.00;3.40;;;20.10;97.30;;;;;;4971896;28;20194;-85
2023/07/11 06:41:30;;;;;;;2.77;1.83;;;20.10;97.30;;;;;;4963516;28;20298;-85
2023/07/11 06:43:56;;;;;;;3.07;2.20;;;20.20;97.30;;;;;;4987734;28;20631;-84
2023/07/11 06:46:22;;;;;;;2.80;2.60;;;20.40;97.30;;;;;;4972458;28;20578;-85
2023/07/11 06:48:51;;;;;;;2.73;2.50;;;20.40;97.30;;;;;;4964819;28;20677;-85
2023/07/11 06:51:18;;;;;;;2.97;2.77;;;20.50;97.30;;;;;;4964767;28;20447;-82
2023/07/11 06:53:43;;;;;;;3.30;2.20;;;20.70;97.30;;;;;;4952914;28;20468;-82
2023/07/11 06:56:09;;;;;;;4.27;2.70;;;20.80;97.30;;;;;;4969734;28;20181;-83
2023/07/11 06:58:35;;;;;;;4.40;2.10;;;20.90;97.30;;;;;;4970746;28;20204;-84
2023/07/11 07:01:06;;;;;;;1.50;1.40;;;21.00;97.30;;;;;;4970761;28;20210;-83
2023/07/11 07:03:33;;;;;;;2.13;2.00;;;21.20;97.30;;;;;;4972133;28;20183;-83
2023/07/11 07:06:05;;;;;;;2.10;1.83;;;21.30;97.30;;;;;;4970777;28;20437;-82
2023/07/11 07:08:30;;;;;;;2.50;2.33;;;21.40;97.30;;;;;;4972304;28;20772;-83
2023/07/11 07:10:56;;;;;;;4.00;2.53;;;21.50;97.30;;;;;;4970804;28;20536;-84
2023/07/11 07:13:23;;;;;;;2.33;2.13;;;21.60;97.30;;;;;;4979531;28;20187;-86
2023/07/11 07:15:51;;;;;;;2.60;1.77;;;21.70;97.30;;;;;;4970588;28;20225;-84
2023/07/11 07:18:17;;;;;;;5.60;1.73;;;21.80;97.30;;;;;;4970832;28;20518;-83
2023/07/11 07:20:44;;;;;;;2.97;1.70;;;21.90;97.00;;;;;;4971354;28;20937;-83
2023/07/11 07:23:09;;;;;;;1.87;1.80;;;22.00;96.90;;;;;;4963161;28;20490;-81
2023/07/11 07:25:36;;;;;;;2.83;2.10;;;22.10;96.30;;;;;;4971742;28;20458;-82
2023/07/11 07:28:01;;;;;;;1.50;1.40;;;22.20;95.40;;;;;;4970407;28;20201;-82
2023/07/11 07:30:27;;;;;;;1.60;1.50;;;22.30;95.50;;;;;;4977981;28;20450;-77
2023/07/11 07:32:53;;;;;;;3.67;2.50;;;22.40;95.30;;;;;;4970176;28;20620;-82
2023/07/11 07:35:18;;;;;;;3.30;2.40;;;22.50;94.70;;;;;;4968222;28;20184;-82
2023/07/11 07:37:44;;;;;;;1.77;1.67;;;22.60;94.70;;;;;;4961233;28;20198;-82
2023/07/11 07:40:09;;;;;;;2.47;1.50;;;22.70;94.20;;;;;;4973007;28;20218;-83
2023/07/11 07:42:35;;;;;;;3.00;1.93;;;22.80;93.50;;;;;;4984194;28;20325;-81
2023/07/11 07:45:00;;;;;;;1.63;1.53;;;22.80;93.10;;;;;;4970053;28;20178;-81
2023/07/11 07:47:26;;;;;;;2.00;1.90;;;22.90;93.10;;;;;;4970713;28;20182;-81
2023/07/11 07:49:52;;;;;;;1.77;1.67;;;23.00;92.10;;;;;;4970203;28;20210;-81
2023/07/11 07:52:18;;;;;;;1.50;1.43;;;23.10;92.10;;;;;;4970989;28;20457;-81
2023/07/11 07:54:43;;;;;;;3.23;2.10;;;23.20;92.00;;;;;;4970876;28;20202;-80
2023/07/11 07:57:09;;;;;;;2.23;1.33;;;23.30;91.60;;;;;;4969551;28;20201;-80
2023/07/11 07:59:34;;;;;;;1.50;1.40;;;23.40;91.10;;;;;;4970777;28;20646;-80
2023/07/11 08:02:00;;;;;;;2.57;2.10;;;23.50;90.60;;;;;;4969250;28;20749;-79
2023/07/11 08:04:25;;;;;;;11.47;2.50;;;23.60;89.80;;;;;;4970965;28;20289;-80
2023/07/11 08:06:51;;;;;;;2.70;1.40;;;23.70;90.30;;;;;;4961242;28;20190;-81
2023/07/11 08:09:18;;;;;;;4.73;2.30;;;23.80;89.60;;;;;;4958244;28;20197;-81
2023/07/11 08:11:44;;;;;;;4.63;1.67;;;23.90;88.60;;;;;;4975258;28;20218;-82
2023/07/11 08:14:11;;;;;;;1.10;1.00;;;23.90;89.00;;;;;;4969483;28;20422;-79
2023/07/11 08:16:38;;;;;;;2.30;1.63;;;24.00;88.30;;;;;;4968656;28;20320;-81
2023/07/11 08:19:04;;;;;;;1.97;1.70;;;24.10;88.00;;;;;;4969475;28;20434;-81
2023/07/11 08:21:30;;;;;;;1.30;1.20;;;24.10;87.20;;;;;;4969507;28;20485;-81
2023/07/11 08:23:56;;;;;;;1.80;1.63;;;24.20;87.30;;;;;;4985579;28;20430;-80
2023/07/11 08:26:22;;;;;;;1.50;1.40;;;24.30;87.60;;;;;;4969494;28;20198;-81
2023/07/11 08:28:49;;;;;;;2.07;1.67;;;24.40;87.80;;;;;;4969165;28;20182;-80
2023/07/11 08:31:15;;;;;;;5.27;2.50;;;24.50;87.60;;;;;;4969100;28;20465;-79
2023/07/11 08:33:41;;;;;;;3.00;2.00;;;24.70;86.20;;;;;;4977019;28;20935;-78
2023/07/11 08:36:07;;;;;;;2.03;1.37;;;24.70;85.90;;;;;;4979262;28;20445;-78
2023/07/11 08:38:33;;;;;;;1.30;1.20;;;24.90;86.30;;;;;;4970678;28;20273;-78
2023/07/11 08:41:24;;;;;;;9.83;3.10;;;24.90;85.80;;;;;;4972232;28;21112;-78
2023/07/11 08:43:54;;;;;;;1.63;1.17;;;25.00;85.70;;;;;;4972357;28;20190;-78
2023/07/11 08:46:21;;;;;;;1.60;1.57;;;25.10;85.70;;;;;;4981161;28;20938;-79
2023/07/11 08:48:58;;;;;;;1.83;1.47;;;25.10;85.40;;;;;;4972189;28;20429;-80
2023/07/11 08:51:40;;;;;;;2.07;1.73;;;25.30;85.70;;;;;;4972609;28;20449;-79
2023/07/11 08:54:28;;;;;;;1.40;1.30;;;25.40;85.20;;;;;;4973994;28;20520;-80
2023/07/11 08:56:56;;;;;;;10.07;3.57;;;25.40;84.80;;;;;;4979479;28;20984;-80
2023/07/11 08:59:27;;;;;;;2.00;1.80;;;25.50;84.90;;;;;;4988400;28;20429;-77
2023/07/11 09:02:14;;;;;;;1.80;1.70;;;25.60;85.10;;;;;;4971618;28;20993;-78
2023/07/11 09:04:47;;;;;;;1.97;1.80;;;25.60;84.70;;;;;;4972465;28;20476;-77
2023/07/11 09:07:41;;;;;;;9.83;2.50;;;25.70;83.70;;;;;;4971685;28;20416;-78
2023/07/11 09:10:31;;;;;;;1.87;1.83;;;25.80;83.60;;;;;;4974494;28;20433;-77
2023/07/11 09:13:18;;;;;;;1.87;1.77;;;25.90;83.90;;;;;;4971259;28;20433;-77
2023/07/11 09:16:09;;;;;;;1.87;1.77;;;26.00;83.90;;;;;;4971374;28;20504;-77
2023/07/11 09:18:47;;;;;;;3.00;1.97;;;26.10;83.50;;;;;;4972736;28;20717;-78
2023/07/11 09:21:32;;;;;;;2.20;1.63;;;26.30;83.00;;;;;;4971034;28;20524;-77
2023/07/11 09:24:30;;;;;;;2.27;1.83;;;26.30;82.20;;;;;;4971212;28;20453;-77
2023/07/11 09:27:04;;;;;;;1.67;1.60;;;26.40;82.40;;;;;;4971342;28;20424;-76
2023/07/11 09:29:31;;;;;;;2.60;1.90;;;26.50;82.00;;;;;;4972208;28;20428;-76
2023/07/11 09:31:59;;;;;;;2.50;2.30;;;26.60;82.50;;;;;;4970825;28;20456;-77
2023/07/11 09:34:35;;;;;;;2.13;1.40;;;26.70;81.10;;;;;;4959339;28;20436;-75
2023/07/11 09:37:30;;;;;;;1.70;1.60;;;26.80;81.10;;;;;;4963717;28;20877;-72
2023/07/11 09:40:11;;;;;;;3.60;2.97;;;26.80;81.20;;;;;;4960203;28;20945;-74
2023/07/11 09:42:49;;;;;;;2.30;1.50;;;26.90;80.90;;;;;;4970393;28;20433;-76
2023/07/11 09:45:22;;;;;;;5.60;2.53;;;27.00;80.30;;;;;;4970577;28;20480;-75
2023/07/11 09:47:57;;;;;;;1.60;1.30;;;27.10;80.30;;;;;;4968649;28;20528;-75
2023/07/11 09:50:52;;;;;;;2.03;1.60;;;27.10;80.20;;;;;;4964849;28;20429;-74
2023/07/11 09:53:20;;;;;;;2.37;1.83;;;27.20;79.30;;;;;;4968007;28;20465;-74
2023/07/11 09:55:52;;;;;;;1.47;1.43;;;27.30;80.10;;;;;;4970395;28;20514;-75
2023/07/11 09:58:17;;;;;;;1.63;1.47;;;27.40;80.20;;;;;;4972060;28;20831;-74
2023/07/11 10:00:48;;;;;;;1.60;1.57;;;27.40;79.90;;;;;;4970126;28;20458;-74
2023/07/11 10:03:25;;;;;;;3.73;2.20;;;27.50;80.40;;;;;;4970288;28;20182;-74
2023/07/11 10:05:52;;;;;;;2.40;1.80;;;27.60;79.60;;;;;;4970302;28;20428;-75
2023/07/11 10:08:29;;;;;;;2.00;1.90;;;27.70;79.70;;;;;;4971188;28;20469;-75
2023/07/11 10:11:01;;;;;;;1.77;1.73;;;27.80;79.40;;;;;;4970229;28;20669;-74
2023/07/11 10:13:27;;;;;;;1.80;1.70;;;27.90;79.60;;;;;;4970033;28;20824;-74
2023/07/11 10:15:54;;;;;;;1.57;1.40;;;27.90;77.30;;;;;;4988595;23;20907;-82
2023/07/11 10:18:24;;;;;;;2.03;1.70;;;28.00;78.20;;;;;;4990698;28;20480;-83
2023/07/11 10:20:54;;;;;;;2.30;1.60;;;28.00;79.50;;;;;;4984654;28;21016;-83
2023/07/11 10:23:24;;;;;;;2.17;2.00;;;28.10;78.90;;;;;;4967512;28;20492;-80
2023/07/11 10:26:06;;;;;;;1.30;1.20;;;28.20;77.50;;;;;;4986331;28;20741;-81
2023/07/11 10:28:34;;;;;;;1.10;1.00;;;28.40;78.00;;;;;;4971549;28;20560;-81
2023/07/11 10:31:12;;;;;;;2.50;2.10;;;28.50;78.30;;;;;;4971127;28;20576;-80
2023/07/11 10:34:06;;;;;;;2.60;1.83;;;28.60;78.70;;;;;;4970609;28;20425;-81
2023/07/11 10:36:46;;;;;;;1.70;1.60;;;28.70;78.20;;;;;;4969098;28;20434;-81
2023/07/11 10:39:28;;;;;;;2.13;1.97;;;28.80;78.10;;;;;;4970697;28;20965;-81
2023/07/11 10:41:58;;;;;;;4.17;1.80;;;28.90;78.30;;;;;;4970465;28;20569;-83
2023/07/11 10:44:31;;;;;;;2.17;1.40;;;29.00;77.90;;;;;;4972140;28;20686;-81
2023/07/11 10:46:56;;;;;;;2.33;2.10;;;29.10;76.20;;;;;;4954720;28;20434;-81
2023/07/11 10:49:31;;;;;;;2.57;1.63;;;29.10;77.00;;;;;;4970344;28;20429;-81
2023/07/11 10:52:08;;;;;;;2.23;1.63;;;29.10;76.80;;;;;;4970675;28;20219;-84
2023/07/11 10:54:46;;;;;;;6.40;2.00;;;29.20;75.70;;;;;;4971503;28;20452;-82
2023/07/11 10:57:41;;;;;;;2.73;2.13;;;29.20;76.20;;;;;;4962288;28;20497;-81
2023/07/11 11:00:36;;;;;;;2.37;2.17;;;29.30;76.60;;;;;;4970128;28;20441;-79
2023/07/11 11:03:17;;;;;;;2.83;2.13;;;29.30;77.20;;;;;;4970041;28;20445;-81
2023/07/11 11:06:02;;;;;;;2.03;1.90;;;29.40;76.30;;;;;;4970126;28;20455;-82
2023/07/11 11:08:53;;;;;;;2.33;2.17;;;29.50;76.80;;;;;;4970512;28;20430;-82
2023/07/11 11:11:32;;;;;;;2.60;1.77;;;29.60;76.30;;;;;;4970213;28;20457;-80
2023/07/11 11:14:15;;;;;;;3.60;2.33;;;29.60;75.80;;;;;;4970127;28;20430;-81
2023/07/11 11:17:05;;;;;;;5.70;2.80;;;29.70;75.30;;;;;;4969460;28;20469;-80
2023/07/11 11:19:55;;;;;;;1.73;1.63;;;29.80;75.60;;;;;;4971581;28;20428;-81
2023/07/11 11:22:45;;;;;;;3.50;1.97;;;29.90;75.60;;;;;;4964234;28;20477;-85
2023/07/11 11:25:15;;;;;;;1.70;1.63;;;30.00;75.30;;;;;;4969974;28;20429;-82
2023/07/11 11:27:45;;;;;;;3.47;2.30;;;30.00;73.30;;;;;;4971722;28;20437;-81
2023/07/11 11:30:20;;;;;;;2.03;1.90;;;29.90;72.40;;;;;;4969821;28;20422;-82
2023/07/11 11:33:23;;;;;;;2.87;2.67;;;29.80;71.80;;;;;;4970128;28;20425;-82
2023/07/11 11:35:54;;;;;;;4.87;2.40;;;29.80;73.40;;;;;;4967020;28;21023;-82
2023/07/11 11:38:39;;;;;;;3.73;2.67;;;29.90;74.20;;;;;;4971786;28;20793;-80
2023/07/11 11:41:12;;;;;;;4.63;2.33;;;30.00;73.90;;;;;;4970998;28;20497;-84
2023/07/11 11:43:39;;;;;;;2.43;2.20;;;30.00;72.50;;;;;;4970164;28;20456;-81
2023/07/11 11:46:07;;;;;;;1.63;1.57;;;30.10;73.90;;;;;;4970504;28;20453;-80
2023/07/11 11:48:36;;;;;;;3.93;2.10;;;30.20;72.90;;;;;;4970720;28;20421;-81
2023/07/11 11:51:05;;;;;;;2.80;2.60;;;30.10;73.20;;;;;;4969248;28;20512;-80
2023/07/11 11:53:43;;;;;;;2.07;1.93;;;30.10;74.30;;;;;;4969774;28;20453;-82
2023/07/11 11:56:13;;;;;;;3.93;2.40;;;30.30;75.00;;;;;;4971112;28;20421;-81
2023/07/11 11:58:59;;;;;;;3.07;2.37;;;30.40;73.60;;;;;;4969833;28;20437;-82
2023/07/11 12:01:47;;;;;;;4.60;2.60;;;30.60;73.90;;;;;;4964859;28;20515;-83
2023/07/11 12:04:32;;;;;;;3.17;2.20;;;30.70;74.80;;;;;;4947136;28;20884;-80
2023/07/11 12:07:10;;;;;;;2.77;2.57;;;30.80;72.90;;;;;;4968895;28;20908;-80
2023/07/11 12:09:49;;;;;;;2.43;2.23;;;30.90;72.40;;;;;;4965940;28;20436;-81
2023/07/11 12:12:23;;;;;;;3.43;3.20;;;31.00;72.60;;;;;;4968371;28;21000;-81
2023/07/11 12:14:52;;;;;;;3.10;2.10;;;31.10;73.10;;;;;;4969216;28;20428;-82
2023/07/11 12:17:33;;;;;;;7.50;3.10;;;31.30;72.00;;;;;;4969233;28;20465;-81
2023/07/11 12:20:07;;;;;;;1.80;1.73;;;31.40;73.20;;;;;;4969119;28;20421;-81
2023/07/11 12:22:39;;;;;;;7.63;3.83;;;31.60;73.20;;;;;;4969469;28;20511;-82
2023/07/11 12:25:23;;;;;;;5.43;3.07;;;31.70;72.50;;;;;;4970438;28;20442;-83
2023/07/11 12:28:02;;;;;;;4.47;3.20;;;31.90;71.60;;;;;;4969571;28;20476;-83
2023/07/11 12:30:33;;;;;;;2.90;2.70;;;32.00;71.90;;;;;;4969544;28;20445;-82
2023/07/11 12:33:21;;;;;;;5.20;2.87;;;32.00;71.90;;;;;;4970194;28;20968;-82
2023/07/11 12:35:56;;;;;;;3.87;2.60;;;32.00;71.70;;;;;;4970114;28;20418;-82
2023/07/11 12:38:30;;;;;;;2.57;2.40;;;32.00;71.90;;;;;;4969565;28;20432;-83
2023/07/11 12:41:23;;;;;;;5.53;2.90;;;32.10;71.60;;;;;;4969334;28;20465;-83
2023/07/11 12:43:48;;;;;;;4.97;2.87;;;32.30;72.40;;;;;;4969196;28;20516;-84
2023/07/11 12:46:22;;;;;;;9.13;4.37;;;32.40;72.00;;;;;;4969157;28;20982;-82
2023/07/11 12:48:50;;;;;;;9.40;3.60;;;32.60;70.90;;;;;;4970258;28;20178;-81
2023/07/11 12:51:21;;;;;;;3.67;3.03;;;32.70;71.10;;;;;;4968838;28;20823;-81
2023/07/11 12:53:51;;;;;;;3.27;2.97;;;32.70;70.10;;;;;;4968860;28;20426;-82
2023/07/11 12:56:17;;;;;;;3.43;3.00;;;32.80;69.00;;;;;;4968945;28;20512;-83
2023/07/11 12:58:45;;;;;;;7.80;4.03;;;32.80;69.20;;;;;;4970344;28;20469;-88
2023/07/11 13:01:15;;;;;;;4.00;3.03;;;32.90;70.10;;;;;;4962778;28;20213;-82
2023/07/11 13:03:41;;;;;;;8.00;3.90;;;32.90;70.10;;;;;;4969169;28;20426;-82
2023/07/11 13:06:32;;;;;;;3.53;3.10;;;33.00;69.70;;;;;;4969615;28;20426;-84
2023/07/11 13:08:58;;;;;;;5.13;3.07;;;33.10;68.50;;;;;;4969467;28;20449;-80
2023/07/11 13:11:28;;;;;;;3.10;2.90;;;33.10;70.00;;;;;;4968089;28;20462;-79
2023/07/11 13:13:54;;;;;;;7.83;3.13;;;33.10;69.60;;;;;;4968146;28;20441;-79
2023/07/11 13:16:37;;;;;;;3.20;2.60;;;33.10;69.40;;;;;;4968212;28;20473;-80
2023/07/11 13:19:03;;;;;;;5.80;3.60;;;33.10;70.60;;;;;;4967989;28;20434;-81
2023/07/11 13:21:29;;;;;;;2.83;2.70;;;33.20;70.00;;;;;;4969641;28;20481;-80
2023/07/11 13:23:56;;;;;;;5.03;3.10;;;33.30;71.00;;;;;;4969643;28;20266;-81
2023/07/11 13:26:24;;;;;;;2.90;2.70;;;33.40;71.30;;;;;;4970896;28;20187;-81
2023/07/11 13:29:06;;;;;;;5.17;4.27;;;33.40;69.60;;;;;;4970497;28;20433;-80
2023/07/11 13:31:34;;;;;;;2.70;2.50;;;33.50;68.80;;;;;;4970153;28;20760;-82
2023/07/11 13:34:11;;;;;;;5.90;4.20;;;33.60;69.10;;;;;;4955414;28;20437;-80
2023/07/11 13:36:39;;;;;;;13.97;4.90;;;33.70;70.60;;;;;;4971683;28;20433;-80
2023/07/11 13:39:07;;;;;;;5.73;3.33;;;33.70;70.40;;;;;;4971617;28;20442;-81
2023/07/11 13:41:39;;;;;;;7.77;3.97;;;33.90;70.40;;;;;;4972800;28;20496;-80
2023/07/11 13:44:33;;;;;;;5.70;3.17;;;33.90;70.20;;;;;;4970383;28;20437;-80
2023/07/11 13:47:24;;;;;;;5.13;3.70;;;34.10;70.20;;;;;;4970568;28;20537;-81
2023/07/11 13:50:01;;;;;;;5.40;3.80;;;34.10;70.20;;;;;;4972147;28;20480;-81
2023/07/11 13:52:37;;;;;;;4.17;3.70;;;34.20;70.10;;;;;;4971554;28;20819;-82
2023/07/11 13:55:31;;;;;;;5.47;3.03;;;34.20;70.10;;;;;;4962031;28;20564;-83
2023/07/11 13:57:57;;;;;;;4.90;4.00;;;34.10;70.50;;;;;;4967802;28;20427;-81
2023/07/11 14:00:23;;;;;;;5.97;3.70;;;34.20;70.50;;;;;;4972220;28;20429;-80
2023/07/11 14:02:49;;;;;;;9.93;3.80;;;34.30;70.50;;;;;;4971973;28;20188;-81
2023/07/11 14:05:23;;;;;;;4.17;2.80;;;34.40;70.90;;;;;;4972018;28;20422;-81
2023/07/11 14:07:51;;;;;;;3.10;2.90;;;34.50;70.70;;;;;;4971430;28;20185;-81
2023/07/11 14:10:18;;;;;;;5.93;3.57;;;34.60;70.10;;;;;;4972328;28;20786;-81
2023/07/11 14:12:44;;;;;;;7.67;3.50;;;34.60;69.70;;;;;;4972576;28;20813;-82
2023/07/11 14:15:22;;;;;;;4.07;3.70;;;34.60;69.70;;;;;;4970420;28;20729;-79
2023/07/11 14:17:49;;;;;;;6.53;3.80;;;34.60;69.10;;;;;;4971991;28;20206;-80
2023/07/11 14:20:16;;;;;;;4.77;3.77;;;34.60;69.70;;;;;;4971211;28;20422;-82
2023/07/11 14:22:42;;;;;;;3.83;3.63;;;34.70;71.40;;;;;;4954380;28;20565;-81
2023/07/11 14:25:13;;;;;;;5.23;3.17;;;34.80;69.70;;;;;;4970049;28;20428;-78
2023/07/11 14:27:39;;;;;;;4.90;3.80;;;35.00;69.60;;;;;;4969987;28;20517;-79
2023/07/11 14:30:05;;;;;;;5.67;4.70;;;35.00;69.10;;;;;;4970844;28;20512;-83
2023/07/11 14:32:31;;;;;;;5.03;3.80;;;35.00;67.60;;;;;;4971537;28;20186;-81
2023/07/11 14:34:56;;;;;;;7.90;3.93;;;35.00;68.10;;;;;;4969832;28;20836;-81
2023/07/11 14:37:22;;;;;;;6.57;4.00;;;35.10;68.80;;;;;;4971258;28;20599;-82
2023/07/11 14:39:48;;;;;;;8.37;4.30;;;35.10;69.10;;;;;;4971619;28;20183;-81
2023/07/11 14:42:27;;;;;;;5.30;3.57;;;35.10;67.90;;;;;;4970295;28;20213;-81
2023/07/11 14:44:54;;;;;;;5.90;3.97;;;35.10;67.90;;;;;;4969293;28;20997;-82
2023/07/11 14:47:21;;;;;;;9.33;4.10;;;35.20;68.00;;;;;;4970043;28;20994;-80
2023/07/11 14:49:47;;;;;;;4.87;4.23;;;35.10;67.40;;;;;;4970661;28;20731;-81
2023/07/11 14:52:28;;;;;;;7.67;5.80;;;35.10;68.10;;;;;;4970032;28;20450;-80
2023/07/11 14:54:55;;;;;;;7.37;4.90;;;35.10;69.40;;;;;;4973199;28;20421;-82
2023/07/11 14:57:21;;;;;;;5.13;3.97;;;35.20;69.20;;;;;;4977270;28;20438;-81
2023/07/11 14:59:47;;;;;;;5.67;4.90;;;35.20;67.90;;;;;;4970160;28;20434;-80
2023/07/11 15:02:21;;;;;;;5.00;3.30;;;35.20;68.50;;;;;;4971039;28;20580;-81
2023/07/11 15:04:48;;;;;;;5.47;4.17;;;35.20;68.80;;;;;;4971367;28;20189;-80
2023/07/11 15:07:13;;;;;;;8.03;3.90;;;35.20;69.10;;;;;;4970491;28;20961;-79
2023/07/11 15:09:39;;;;;;;5.50;4.60;;;35.30;68.60;;;;;;4974646;28;20433;-80
2023/07/11 15:12:05;;;;;;;7.77;4.23;;;35.40;67.80;;;;;;4969603;28;20214;-80
2023/07/11 15:14:30;;;;;;;3.67;3.50;;;35.50;68.00;;;;;;4969671;28;20209;-80
2023/07/11 15:16:57;;;;;;;5.50;4.43;;;35.60;68.70;;;;;;4970425;28;20230;-79
2023/07/11 15:19:25;;;;;;;4.47;3.03;;;35.60;68.10;;;;;;4970519;28;20654;-80
2023/07/11 15:22:05;;;;;;;8.67;4.07;;;35.60;67.30;;;;;;4970393;28;20481;-80
2023/07/11 15:24:35;;;;;;;7.83;4.60;;;35.60;67.00;;;;;;4970479;28;20922;-80
2023/07/11 15:27:00;;;;;;;7.63;4.37;;;35.60;67.50;;;;;;4969279;28;20934;-80
2023/07/11 15:29:26;;;;;;;6.33;3.70;;;35.60;67.60;;;;;;4971020;28;20421;-80
2023/07/11 15:31:51;;;;;;;7.30;4.53;;;35.70;67.90;;;;;;4970288;28;20198;-79
2023/07/11 15:34:23;;;;;;;11.27;5.93;;;35.70;67.50;;;;;;4970160;28;20182;-79
2023/07/11 15:36:49;;;;;;;5.47;4.10;;;35.70;66.80;;;;;;4968741;28;20201;-79
2023/07/11 15:39:15;;;;;;;13.90;4.07;;;35.70;66.10;;;;;;4969006;28;20797;-78
2023/07/11 15:41:45;;;;;;;5.87;4.03;;;35.60;67.10;;;;;;4970633;28;20214;-80
2023/07/11 15:44:37;;;;;;;5.77;3.87;;;35.70;67.40;;;;;;4969153;28;20249;-80
2023/07/11 15:47:05;;;;;;;10.10;5.30;;;35.70;65.80;;;;;;4969072;28;20426;-81
2023/07/11 15:49:31;;;;;;;8.10;4.43;;;35.70;66.20;;;;;;4969195;28;20418;-79
2023/07/11 15:51:56;;;;;;;8.27;5.13;;;35.70;66.30;;;;;;4967994;28;20449;-80
2023/07/11 15:54:22;;;;;;;13.40;5.33;;;35.70;66.30;;;;;;4969900;28;20178;-82
2023/07/11 15:56:48;;;;;;;6.53;4.33;;;35.80;66.50;;;;;;4968810;28;20595;-80
2023/07/11 15:59:15;;;;;;;4.60;3.40;;;35.80;66.40;;;;;;4968872;28;20182;-79
2023/07/11 16:01:41;;;;;;;4.43;3.93;;;35.70;66.40;;;;;;4969630;28;20272;-79
2023/07/11 16:04:18;;;;;;;7.87;4.30;;;35.60;67.10;;;;;;4968590;28;20942;-79
2023/07/11 16:06:45;;;;;;;7.87;4.63;;;35.60;67.00;;;;;;4968963;28;20170;-80
2023/07/11 16:09:25;;;;;;;4.30;4.03;;;35.50;67.30;;;;;;4969551;28;20953;-80
2023/07/11 16:11:53;;;;;;;5.63;3.30;;;35.50;67.70;;;;;;4969784;28;20540;-79
2023/07/11 16:16:53;;;;;;;10.17;5.17;;;35.50;67.40;;;;;;4944953;28;20474;-69
2023/07/11 16:19:30;;;;;;;8.57;4.10;;;35.40;66.60;;;;;;4948497;28;20423;-69
2023/07/11 16:21:55;;;;;;;8.97;3.83;;;35.40;67.60;;;;;;4948420;28;20211;-70
2023/07/11 16:24:22;;;;;;;9.50;4.97;;;35.40;67.40;;;;;;4949773;28;20431;-69
2023/07/11 16:26:49;;;;;;;7.80;4.70;;;35.40;67.90;;;;;;4949756;29;20246;-70
2023/07/11 16:29:27;;;;;;;6.10;4.27;;;35.50;67.40;;;;;;4949867;29;20514;-70
2023/07/11 16:31:52;;;;;;;7.40;4.23;;;35.50;67.20;;;;;;4948303;28;20943;-70
2023/07/11 16:34:24;;;;;;;8.13;3.63;;;35.50;66.80;;;;;;4945620;28;20505;-70
2023/07/11 16:36:52;;;;;;;5.80;3.07;;;35.50;67.30;;;;;;4949380;28;20193;-70
2023/07/11 16:39:25;;;;;;;4.87;3.43;;;35.40;67.00;;;;;;4948079;28;20423;-70
2023/07/11 16:41:51;;;;;;;8.33;3.20;;;35.30;67.30;;;;;;4949955;28;20981;-71
2023/07/11 16:44:17;;;;;;;6.20;4.47;;;35.20;67.70;;;;;;4949427;28;20577;-71
2023/07/11 16:46:46;;;;;;;4.03;3.40;;;35.10;68.10;;;;;;4949986;29;20191;-71
2023/07/11 16:49:17;;;;;;;5.00;3.70;;;35.00;68.20;;;;;;4949626;28;20469;-71
2023/07/11 16:51:44;;;;;;;5.17;3.10;;;34.90;68.40;;;;;;4949573;28;20488;-71
2023/07/11 16:54:22;;;;;;;3.80;2.57;;;34.70;68.60;;;;;;4946728;29;20489;-70
2023/07/11 16:56:49;;;;;;;3.60;2.70;;;34.50;69.00;;;;;;4943277;28;21001;-71
2023/07/11 16:59:20;;;;;;;3.47;2.50;;;34.30;68.60;;;;;;4948911;28;20427;-72
2023/07/11 17:01:48;;;;;;;3.60;2.83;;;34.00;69.60;;;;;;4951970;28;20498;-71
2023/07/11 17:04:15;;;;;;;5.23;3.17;;;33.80;70.20;;;;;;4952085;29;20430;-71
2023/07/11 17:06:41;;;;;;;5.70;4.10;;;33.70;70.30;;;;;;4960123;28;20418;-71
2023/07/11 17:09:18;;;;;;;5.17;3.67;;;33.50;70.30;;;;;;4953537;29;20419;-71
2023/07/11 17:11:46;;;;;;;4.23;3.60;;;33.30;70.60;;;;;;4953866;28;20861;-72